sensor_id;sensor_type;location;lat;lon;timestamp;temperature;humidity
34279;DHT22;20538;51.528;9.942;2022-07-23T00:00:18;17.00;99.90
34279;DHT22;20538;51.528;9.942;2022-07-23T00:02:44;17.00;99.90
34279;DHT22;20538;51.528;9.942;2022-07-23T00:05:10;17.00;99.90
34279;DHT22;20538;51.528;9.942;2022-07-23T00:07:36;17.00;99.90
34279;DHT22;20538;51.528;9.942;2022-07-23T00:10:03;17.10;99.90
34279;DHT22;20538;51.528;9.942;2022-07-23T00:12:29;17.10;99.90
34279;DHT22;20538;51.528;9.942;2022-07-23T00:14:54;17.00;99.90
34279;DHT22;20538;51.528;9.942;2022-07-23T00:17:20;16.90;99.90
34279;DHT22;20538;51.528;9.942;2022-07-23T00:19:46;17.00;99.90
34279;DHT22;20538;51.528;9.942;2022-07-23T00:22:12;16.90;99.90
34279;DHT22;20538;51.528;9.942;2022-07-23T00:24:38;16.90;99.90
34279;DHT22;20538;51.528;9.942;2022-07-23T00:27:03;17.00;99.90
34279;DHT22;20538;51.528;9.942;2022-07-23T00:32:30;16.90;99.90
34279;DHT22;20538;51.528;9.942;2022-07-23T00:34:56;16.90;99.90
34279;DHT22;20538;51.528;9.942;2022-07-23T00:37:21;16.90;99.90
34279;DHT22;20538;51.528;9.942;2022-07-23T00:39:47;16.90;99.90
34279;DHT22;20538;51.528;9.942;2022-07-23T00:42:13;16.90;99.90
34279;DHT22;20538;51.528;9.942;2022-07-23T00:44:39;16.90;99.90
34279;DHT22;20538;51.528;9.942;2022-07-23T00:47:07;16.60;99.90
34279;DHT22;20538;51.528;9.942;2022-07-23T00:49:33;16.50;99.90
34279;DHT22;20538;51.528;9.942;2022-07-23T00:52:01;16.50;99.90
34279;DHT22;20538;51.528;9.942;2022-07-23T00:54:27;16.50;99.90
34279;DHT22;20538;51.528;9.942;2022-07-23T00:56:53;16.50;99.90
34279;DHT22;20538;51.528;9.942;2022-07-23T00:59:19;16.60;99.90
34279;DHT22;20538;51.528;9.942;2022-07-23T01:01:46;16.60;99.90
34279;DHT22;20538;51.528;9.942;2022-07-23T01:04:14;16.70;99.90
34279;DHT22;20538;51.528;9.942;2022-07-23T01:06:40;16.60;99.90
34279;DHT22;20538;51.528;9.942;2022-07-23T01:09:06;16.60;99.90
34279;DHT22;20538;51.528;9.942;2022-07-23T01:11:36;16.50;99.90
34279;DHT22;20538;51.528;9.942;2022-07-23T01:14:13;16.50;99.90
34279;DHT22;20538;51.528;9.942;2022-07-23T01:16:41;16.60;99.90
34279;DHT22;20538;51.528;9.942;2022-07-23T01:19:08;16.60;99.90
34279;DHT22;20538;51.528;9.942;2022-07-23T01:21:42;16.70;99.90
34279;DHT22;20538;51.528;9.942;2022-07-23T01:24:09;16.60;99.90
34279;DHT22;20538;51.528;9.942;2022-07-23T01:26:36;16.60;99.90
34279;DHT22;20538;51.528;9.942;2022-07-23T01:29:02;16.70;99.90
34279;DHT22;20538;51.528;9.942;2022-07-23T01:31:28;16.70;99.90
34279;DHT22;20538;51.528;9.942;2022-07-23T01:33:54;16.60;99.90
34279;DHT22;20538;51.528;9.942;2022-07-23T01:36:19;16.50;99.90
34279;DHT22;20538;51.528;9.942;2022-07-23T01:38:45;16.60;99.90
34279;DHT22;20538;51.528;9.942;2022-07-23T01:41:11;16.50;99.90
34279;DHT22;20538;51.528;9.942;2022-07-23T01:43:37;16.40;99.90
34279;DHT22;20538;51.528;9.942;2022-07-23T01:46:02;16.60;99.90
34279;DHT22;20538;51.528;9.942;2022-07-23T01:48:28;16.60;99.90
34279;DHT22;20538;51.528;9.942;2022-07-23T01:50:54;16.70;99.90
34279;DHT22;20538;51.528;9.942;2022-07-23T01:53:20;16.70;99.90
34279;DHT22;20538;51.528;9.942;2022-07-23T01:55:45;16.70;99.90
34279;DHT22;20538;51.528;9.942;2022-07-23T01:58:11;16.70;99.90
34279;DHT22;20538;51.528;9.942;2022-07-23T02:00:37;16.60;99.90
34279;DHT22;20538;51.528;9.942;2022-07-23T02:03:02;16.40;99.90
34279;DHT22;20538;51.528;9.942;2022-07-23T02:05:28;16.50;99.90
34279;DHT22;20538;51.528;9.942;2022-07-23T02:07:55;16.60;99.90
34279;DHT22;20538;51.528;9.942;2022-07-23T02:10:21;16.40;99.90
34279;DHT22;20538;51.528;9.942;2022-07-23T02:12:50;16.10;99.90
34279;DHT22;20538;51.528;9.942;2022-07-23T02:15:16;16.20;99.90
34279;DHT22;20538;51.528;9.942;2022-07-23T02:17:42;16.30;99.90
34279;DHT22;20538;51.528;9.942;2022-07-23T02:20:09;16.30;99.90
34279;DHT22;20538;51.528;9.942;2022-07-23T02:22:35;16.40;99.90
34279;DHT22;20538;51.528;9.942;2022-07-23T02:25:02;16.20;99.90
34279;DHT22;20538;51.528;9.942;2022-07-23T02:27:27;16.10;99.90
34279;DHT22;20538;51.528;9.942;2022-07-23T02:29:53;16.00;99.90
34279;DHT22;20538;51.528;9.942;2022-07-23T02:32:19;16.00;99.90
34279;DHT22;20538;51.528;9.942;2022-07-23T02:34:47;16.10;99.90
34279;DHT22;20538;51.528;9.942;2022-07-23T02:37:13;16.20;99.90
34279;DHT22;20538;51.528;9.942;2022-07-23T02:39:39;16.30;99.90
34279;DHT22;20538;51.528;9.942;2022-07-23T02:42:04;16.10;99.90
34279;DHT22;20538;51.528;9.942;2022-07-23T02:44:30;16.00;99.90
34279;DHT22;20538;51.528;9.942;2022-07-23T02:46:56;16.00;99.90
34279;DHT22;20538;51.528;9.942;2022-07-23T02:49:23;15.80;99.90
34279;DHT22;20538;51.528;9.942;2022-07-23T02:51:48;15.90;99.90
34279;DHT22;20538;51.528;9.942;2022-07-23T02:54:14;15.90;99.90
34279;DHT22;20538;51.528;9.942;2022-07-23T02:56:40;15.80;99.90
34279;DHT22;20538;51.528;9.942;2022-07-23T02:59:06;15.80;99.90
34279;DHT22;20538;51.528;9.942;2022-07-23T03:01:31;15.70;99.90
34279;DHT22;20538;51.528;9.942;2022-07-23T03:03:57;15.80;99.90
34279;DHT22;20538;51.528;9.942;2022-07-23T03:06:23;15.70;99.90
34279;DHT22;20538;51.528;9.942;2022-07-23T03:08:48;15.70;99.90
34279;DHT22;20538;51.528;9.942;2022-07-23T03:11:14;15.70;99.90
34279;DHT22;20538;51.528;9.942;2022-07-23T03:13:40;15.70;99.90
34279;DHT22;20538;51.528;9.942;2022-07-23T03:16:07;15.80;99.90
34279;DHT22;20538;51.528;9.942;2022-07-23T03:18:33;15.90;99.90
34279;DHT22;20538;51.528;9.942;2022-07-23T03:20:59;15.80;99.90
34279;DHT22;20538;51.528;9.942;2022-07-23T03:23:25;15.70;99.90
34279;DHT22;20538;51.528;9.942;2022-07-23T03:25:50;15.70;99.90
34279;DHT22;20538;51.528;9.942;2022-07-23T03:28:17;15.70;99.90
34279;DHT22;20538;51.528;9.942;2022-07-23T03:30:44;15.80;99.90
34279;DHT22;20538;51.528;9.942;2022-07-23T03:33:12;15.80;99.90
34279;DHT22;20538;51.528;9.942;2022-07-23T03:35:38;15.80;99.90
34279;DHT22;20538;51.528;9.942;2022-07-23T03:38:04;15.60;99.90
34279;DHT22;20538;51.528;9.942;2022-07-23T03:40:30;15.80;99.90
34279;DHT22;20538;51.528;9.942;2022-07-23T03:42:55;15.80;99.90
34279;DHT22;20538;51.528;9.942;2022-07-23T03:45:21;15.90;99.90
34279;DHT22;20538;51.528;9.942;2022-07-23T03:47:47;15.80;99.90
34279;DHT22;20538;51.528;9.942;2022-07-23T03:50:12;15.70;99.90
34279;DHT22;20538;51.528;9.942;2022-07-23T03:52:38;15.80;99.90
34279;DHT22;20538;51.528;9.942;2022-07-23T03:55:04;15.80;99.90
34279;DHT22;20538;51.528;9.942;2022-07-23T03:57:30;15.90;99.90
34279;DHT22;20538;51.528;9.942;2022-07-23T03:59:56;16.00;99.90
34279;DHT22;20538;51.528;9.942;2022-07-23T04:02:22;16.00;99.90
34279;DHT22;20538;51.528;9.942;2022-07-23T04:04:47;16.00;99.90
34279;DHT22;20538;51.528;9.942;2022-07-23T04:07:13;15.90;99.90
34279;DHT22;20538;51.528;9.942;2022-07-23T04:09:39;15.90;99.90
34279;DHT22;20538;51.528;9.942;2022-07-23T04:12:06;15.90;99.90
34279;DHT22;20538;51.528;9.942;2022-07-23T04:14:32;15.90;99.90
34279;DHT22;20538;51.528;9.942;2022-07-23T04:16:58;16.00;99.90
34279;DHT22;20538;51.528;9.942;2022-07-23T04:19:24;15.90;99.90
34279;DHT22;20538;51.528;9.942;2022-07-23T04:21:50;16.00;99.90
34279;DHT22;20538;51.528;9.942;2022-07-23T04:24:17;15.90;99.90
34279;DHT22;20538;51.528;9.942;2022-07-23T04:26:43;16.00;99.90
34279;DHT22;20538;51.528;9.942;2022-07-23T04:29:09;16.10;99.90
34279;DHT22;20538;51.528;9.942;2022-07-23T04:31:35;16.20;99.90
34279;DHT22;20538;51.528;9.942;2022-07-23T04:34:00;16.30;99.90
34279;DHT22;20538;51.528;9.942;2022-07-23T04:36:26;16.30;99.90
34279;DHT22;20538;51.528;9.942;2022-07-23T04:38:52;16.30;99.90
34279;DHT22;20538;51.528;9.942;2022-07-23T04:41:17;16.40;99.90
34279;DHT22;20538;51.528;9.942;2022-07-23T04:43:43;16.40;99.90
34279;DHT22;20538;51.528;9.942;2022-07-23T04:46:09;16.40;99.90
34279;DHT22;20538;51.528;9.942;2022-07-23T04:48:36;16.50;99.90
34279;DHT22;20538;51.528;9.942;2022-07-23T04:51:01;16.50;99.90
34279;DHT22;20538;51.528;9.942;2022-07-23T04:53:27;16.40;99.90
34279;DHT22;20538;51.528;9.942;2022-07-23T04:55:53;16.50;99.90
34279;DHT22;20538;51.528;9.942;2022-07-23T04:58:19;16.40;99.90
34279;DHT22;20538;51.528;9.942;2022-07-23T05:00:45;16.50;99.90
34279;DHT22;20538;51.528;9.942;2022-07-23T05:03:11;16.60;99.90
34279;DHT22;20538;51.528;9.942;2022-07-23T05:05:37;16.60;99.90
34279;DHT22;20538;51.528;9.942;2022-07-23T05:08:03;16.50;99.90
34279;DHT22;20538;51.528;9.942;2022-07-23T05:10:29;16.60;99.90
34279;DHT22;20538;51.528;9.942;2022-07-23T05:12:55;16.50;99.90
34279;DHT22;20538;51.528;9.942;2022-07-23T05:15:20;16.60;99.90
34279;DHT22;20538;51.528;9.942;2022-07-23T05:17:46;16.40;99.90
34279;DHT22;20538;51.528;9.942;2022-07-23T05:20:12;16.40;99.90
34279;DHT22;20538;51.528;9.942;2022-07-23T05:22:39;16.40;99.90
34279;DHT22;20538;51.528;9.942;2022-07-23T05:25:05;16.60;99.90
34279;DHT22;20538;51.528;9.942;2022-07-23T05:27:31;16.70;99.90
34279;DHT22;20538;51.528;9.942;2022-07-23T05:29:56;16.80;99.90
34279;DHT22;20538;51.528;9.942;2022-07-23T05:32:22;17.00;99.90
34279;DHT22;20538;51.528;9.942;2022-07-23T05:34:48;17.10;99.90
34279;DHT22;20538;51.528;9.942;2022-07-23T05:37:13;17.20;99.90
34279;DHT22;20538;51.528;9.942;2022-07-23T05:39:39;17.30;99.90
34279;DHT22;20538;51.528;9.942;2022-07-23T05:42:05;17.40;99.90
34279;DHT22;20538;51.528;9.942;2022-07-23T05:44:30;17.40;99.90
34279;DHT22;20538;51.528;9.942;2022-07-23T05:46:56;17.40;99.90
34279;DHT22;20538;51.528;9.942;2022-07-23T05:49:21;17.40;99.90
34279;DHT22;20538;51.528;9.942;2022-07-23T05:51:47;17.30;99.90
34279;DHT22;20538;51.528;9.942;2022-07-23T05:54:13;17.30;99.90
34279;DHT22;20538;51.528;9.942;2022-07-23T05:56:38;17.30;99.90
34279;DHT22;20538;51.528;9.942;2022-07-23T05:59:04;17.30;99.90
34279;DHT22;20538;51.528;9.942;2022-07-23T06:01:30;17.30;99.90
34279;DHT22;20538;51.528;9.942;2022-07-23T06:03:55;17.40;99.90
34279;DHT22;20538;51.528;9.942;2022-07-23T06:06:21;17.70;99.90
34279;DHT22;20538;51.528;9.942;2022-07-23T06:08:46;18.50;99.90
34279;DHT22;20538;51.528;9.942;2022-07-23T06:11:12;18.70;99.90
34279;DHT22;20538;51.528;9.942;2022-07-23T06:13:38;18.60;99.90
34279;DHT22;20538;51.528;9.942;2022-07-23T06:16:04;18.30;99.90
34279;DHT22;20538;51.528;9.942;2022-07-23T06:18:29;18.20;99.90
34279;DHT22;20538;51.528;9.942;2022-07-23T06:20:55;18.00;99.90
34279;DHT22;20538;51.528;9.942;2022-07-23T06:23:21;17.90;99.90
34279;DHT22;20538;51.528;9.942;2022-07-23T06:25:46;17.80;99.90
34279;DHT22;20538;51.528;9.942;2022-07-23T06:28:12;17.50;99.90
34279;DHT22;20538;51.528;9.942;2022-07-23T06:30:38;17.70;99.90
34279;DHT22;20538;51.528;9.942;2022-07-23T06:33:03;17.90;99.90
34279;DHT22;20538;51.528;9.942;2022-07-23T06:35:29;18.20;99.90
34279;DHT22;20538;51.528;9.942;2022-07-23T06:37:55;18.60;99.90
34279;DHT22;20538;51.528;9.942;2022-07-23T06:40:21;18.90;99.90
34279;DHT22;20538;51.528;9.942;2022-07-23T06:42:46;19.00;99.90
34279;DHT22;20538;51.528;9.942;2022-07-23T06:45:12;19.20;99.90
34279;DHT22;20538;51.528;9.942;2022-07-23T06:47:38;18.80;99.90
34279;DHT22;20538;51.528;9.942;2022-07-23T06:50:05;18.70;99.90
34279;DHT22;20538;51.528;9.942;2022-07-23T06:52:31;18.50;99.90
34279;DHT22;20538;51.528;9.942;2022-07-23T06:54:57;18.60;99.90
34279;DHT22;20538;51.528;9.942;2022-07-23T06:57:22;18.00;99.90
34279;DHT22;20538;51.528;9.942;2022-07-23T06:59:53;17.90;99.90
34279;DHT22;20538;51.528;9.942;2022-07-23T07:02:19;18.10;99.90
34279;DHT22;20538;51.528;9.942;2022-07-23T07:04:44;18.30;99.90
34279;DHT22;20538;51.528;9.942;2022-07-23T07:07:11;18.40;99.90
34279;DHT22;20538;51.528;9.942;2022-07-23T07:09:37;18.40;99.90
34279;DHT22;20538;51.528;9.942;2022-07-23T07:12:03;18.70;99.90
34279;DHT22;20538;51.528;9.942;2022-07-23T07:14:29;19.00;99.90
34279;DHT22;20538;51.528;9.942;2022-07-23T07:16:55;19.00;99.90
34279;DHT22;20538;51.528;9.942;2022-07-23T07:19:20;18.80;99.90
34279;DHT22;20538;51.528;9.942;2022-07-23T07:21:46;19.10;99.90
34279;DHT22;20538;51.528;9.942;2022-07-23T07:24:12;18.80;99.90
34279;DHT22;20538;51.528;9.942;2022-07-23T07:26:37;18.90;99.90
34279;DHT22;20538;51.528;9.942;2022-07-23T07:29:05;18.50;99.90
34279;DHT22;20538;51.528;9.942;2022-07-23T07:31:30;18.60;99.90
34279;DHT22;20538;51.528;9.942;2022-07-23T07:33:56;18.50;99.90
34279;DHT22;20538;51.528;9.942;2022-07-23T07:36:22;18.60;99.90
34279;DHT22;20538;51.528;9.942;2022-07-23T07:38:51;18.90;99.90
34279;DHT22;20538;51.528;9.942;2022-07-23T07:41:17;18.80;99.90
34279;DHT22;20538;51.528;9.942;2022-07-23T07:43:48;19.50;99.90
34279;DHT22;20538;51.528;9.942;2022-07-23T07:46:13;19.60;99.90
34279;DHT22;20538;51.528;9.942;2022-07-23T07:48:39;19.20;99.90
34279;DHT22;20538;51.528;9.942;2022-07-23T07:51:05;18.90;99.90
34279;DHT22;20538;51.528;9.942;2022-07-23T07:53:31;18.90;99.90
34279;DHT22;20538;51.528;9.942;2022-07-23T07:55:57;19.20;99.90
34279;DHT22;20538;51.528;9.942;2022-07-23T07:58:22;19.10;99.90
34279;DHT22;20538;51.528;9.942;2022-07-23T08:00:48;19.10;99.90
34279;DHT22;20538;51.528;9.942;2022-07-23T08:03:14;19.70;99.90
34279;DHT22;20538;51.528;9.942;2022-07-23T08:05:40;20.10;99.90
34279;DHT22;20538;51.528;9.942;2022-07-23T08:08:05;20.30;99.90
34279;DHT22;20538;51.528;9.942;2022-07-23T08:10:31;20.30;99.90
34279;DHT22;20538;51.528;9.942;2022-07-23T08:12:58;21.00;99.90
34279;DHT22;20538;51.528;9.942;2022-07-23T08:15:25;21.00;99.90
34279;DHT22;20538;51.528;9.942;2022-07-23T08:17:51;20.40;99.90
34279;DHT22;20538;51.528;9.942;2022-07-23T08:20:19;20.70;99.90
34279;DHT22;20538;51.528;9.942;2022-07-23T08:23:04;20.10;99.90
34279;DHT22;20538;51.528;9.942;2022-07-23T08:25:31;20.30;99.90
34279;DHT22;20538;51.528;9.942;2022-07-23T08:27:58;20.60;99.90
34279;DHT22;20538;51.528;9.942;2022-07-23T08:30:24;20.40;99.90
34279;DHT22;20538;51.528;9.942;2022-07-23T08:33:00;20.70;99.90
34279;DHT22;20538;51.528;9.942;2022-07-23T08:35:28;20.10;99.90
34279;DHT22;20538;51.528;9.942;2022-07-23T08:37:55;20.10;99.90
34279;DHT22;20538;51.528;9.942;2022-07-23T08:40:22;20.30;99.90
34279;DHT22;20538;51.528;9.942;2022-07-23T08:42:49;20.10;99.90
34279;DHT22;20538;51.528;9.942;2022-07-23T08:45:21;20.60;99.90
34279;DHT22;20538;51.528;9.942;2022-07-23T08:47:53;21.00;99.90
34279;DHT22;20538;51.528;9.942;2022-07-23T08:50:20;21.20;99.90
34279;DHT22;20538;51.528;9.942;2022-07-23T08:52:48;21.50;99.90
34279;DHT22;20538;51.528;9.942;2022-07-23T08:55:17;21.20;99.90
34279;DHT22;20538;51.528;9.942;2022-07-23T08:57:43;21.10;99.90
34279;DHT22;20538;51.528;9.942;2022-07-23T09:00:09;21.20;99.90
34279;DHT22;20538;51.528;9.942;2022-07-23T09:02:42;21.50;99.90
34279;DHT22;20538;51.528;9.942;2022-07-23T09:05:09;22.00;99.90
34279;DHT22;20538;51.528;9.942;2022-07-23T09:07:37;21.90;99.90
34279;DHT22;20538;51.528;9.942;2022-07-23T09:10:09;21.80;99.90
34279;DHT22;20538;51.528;9.942;2022-07-23T09:12:41;21.80;99.90
34279;DHT22;20538;51.528;9.942;2022-07-23T09:15:08;21.80;99.90
34279;DHT22;20538;51.528;9.942;2022-07-23T09:17:42;21.70;99.90
34279;DHT22;20538;51.528;9.942;2022-07-23T09:20:13;21.30;99.90
34279;DHT22;20538;51.528;9.942;2022-07-23T09:22:44;21.60;99.90
34279;DHT22;20538;51.528;9.942;2022-07-23T09:25:17;21.40;99.90
34279;DHT22;20538;51.528;9.942;2022-07-23T09:27:57;21.30;99.90
34279;DHT22;20538;51.528;9.942;2022-07-23T09:30:27;21.10;99.90
34279;DHT22;20538;51.528;9.942;2022-07-23T09:33:16;21.90;99.90
34279;DHT22;20538;51.528;9.942;2022-07-23T09:35:53;21.60;99.90
34279;DHT22;20538;51.528;9.942;2022-07-23T09:38:24;21.80;99.90
34279;DHT22;20538;51.528;9.942;2022-07-23T09:41:07;21.60;99.90
34279;DHT22;20538;51.528;9.942;2022-07-23T09:43:32;22.10;99.90
34279;DHT22;20538;51.528;9.942;2022-07-23T09:48:47;22.40;99.90
34279;DHT22;20538;51.528;9.942;2022-07-23T09:51:13;22.40;99.90
34279;DHT22;20538;51.528;9.942;2022-07-23T09:53:59;22.20;99.90
34279;DHT22;20538;51.528;9.942;2022-07-23T09:56:27;22.30;99.90
34279;DHT22;20538;51.528;9.942;2022-07-23T09:58:53;21.30;99.90
34279;DHT22;20538;51.528;9.942;2022-07-23T10:01:56;21.30;99.90
34279;DHT22;20538;51.528;9.942;2022-07-23T10:04:24;21.90;99.90
34279;DHT22;20538;51.528;9.942;2022-07-23T10:06:54;22.40;99.90
34279;DHT22;20538;51.528;9.942;2022-07-23T10:09:26;22.60;99.90
34279;DHT22;20538;51.528;9.942;2022-07-23T10:11:55;23.10;99.90
34279;DHT22;20538;51.528;9.942;2022-07-23T10:14:26;23.00;99.90
34279;DHT22;20538;51.528;9.942;2022-07-23T10:16:53;22.60;99.90
34279;DHT22;20538;51.528;9.942;2022-07-23T10:19:19;22.40;99.90
34279;DHT22;20538;51.528;9.942;2022-07-23T10:22:03;22.20;99.90
34279;DHT22;20538;51.528;9.942;2022-07-23T10:24:47;22.40;99.90
34279;DHT22;20538;51.528;9.942;2022-07-23T10:33:50;22.30;99.90
34279;DHT22;20538;51.528;9.942;2022-07-23T10:39:14;22.30;99.90
34279;DHT22;20538;51.528;9.942;2022-07-23T10:41:40;22.60;99.90
34279;DHT22;20538;51.528;9.942;2022-07-23T10:44:10;22.80;99.90
34279;DHT22;20538;51.528;9.942;2022-07-23T10:46:36;23.00;99.90
34279;DHT22;20538;51.528;9.942;2022-07-23T10:49:23;22.90;99.90
34279;DHT22;20538;51.528;9.942;2022-07-23T10:54:45;22.60;99.90
34279;DHT22;20538;51.528;9.942;2022-07-23T10:57:13;22.30;99.90
34279;DHT22;20538;51.528;9.942;2022-07-23T11:00:09;22.40;99.90
34279;DHT22;20538;51.528;9.942;2022-07-23T11:02:38;22.80;99.90
34279;DHT22;20538;51.528;9.942;2022-07-23T11:05:08;22.40;99.90
34279;DHT22;20538;51.528;9.942;2022-07-23T11:07:35;22.80;99.90
34279;DHT22;20538;51.528;9.942;2022-07-23T11:10:02;22.90;99.90
34279;DHT22;20538;51.528;9.942;2022-07-23T11:15:08;23.00;99.90
34279;DHT22;20538;51.528;9.942;2022-07-23T11:20:22;23.30;99.90
34279;DHT22;20538;51.528;9.942;2022-07-23T11:22:51;22.50;99.90
34279;DHT22;20538;51.528;9.942;2022-07-23T11:27:50;22.90;99.90
34279;DHT22;20538;51.528;9.942;2022-07-23T11:32:52;22.90;99.90
34279;DHT22;20538;51.528;9.942;2022-07-23T11:35:26;22.90;99.90
34279;DHT22;20538;51.528;9.942;2022-07-23T11:37:54;23.10;99.90
34279;DHT22;20538;51.528;9.942;2022-07-23T11:40:27;23.30;99.90
34279;DHT22;20538;51.528;9.942;2022-07-23T11:43:02;23.60;99.90
34279;DHT22;20538;51.528;9.942;2022-07-23T11:45:38;23.60;99.90
34279;DHT22;20538;51.528;9.942;2022-07-23T11:48:06;23.60;99.90
34279;DHT22;20538;51.528;9.942;2022-07-23T11:50:32;23.60;99.90
34279;DHT22;20538;51.528;9.942;2022-07-23T11:52:58;23.80;99.90
34279;DHT22;20538;51.528;9.942;2022-07-23T11:55:24;23.90;99.90
34279;DHT22;20538;51.528;9.942;2022-07-23T11:57:52;23.40;99.90
34279;DHT22;20538;51.528;9.942;2022-07-23T12:00:24;23.50;99.90
34279;DHT22;20538;51.528;9.942;2022-07-23T12:03:01;23.30;99.90
34279;DHT22;20538;51.528;9.942;2022-07-23T12:05:32;23.30;99.90
34279;DHT22;20538;51.528;9.942;2022-07-23T12:07:59;23.30;99.90
34279;DHT22;20538;51.528;9.942;2022-07-23T12:10:44;23.20;99.90
34279;DHT22;20538;51.528;9.942;2022-07-23T12:13:15;23.50;99.90
34279;DHT22;20538;51.528;9.942;2022-07-23T12:15:43;23.60;99.90
34279;DHT22;20538;51.528;9.942;2022-07-23T12:18:12;23.80;99.90
34279;DHT22;20538;51.528;9.942;2022-07-23T12:20:43;23.40;99.90
34279;DHT22;20538;51.528;9.942;2022-07-23T12:23:10;23.30;99.90
34279;DHT22;20538;51.528;9.942;2022-07-23T12:25:39;23.50;99.90
34279;DHT22;20538;51.528;9.942;2022-07-23T12:30:52;23.90;99.90
34279;DHT22;20538;51.528;9.942;2022-07-23T12:33:32;24.00;99.90
34279;DHT22;20538;51.528;9.942;2022-07-23T12:36:01;24.10;99.90
34279;DHT22;20538;51.528;9.942;2022-07-23T12:38:38;24.10;99.90
34279;DHT22;20538;51.528;9.942;2022-07-23T12:41:03;23.90;99.90
34279;DHT22;20538;51.528;9.942;2022-07-23T12:43:37;23.70;99.90
34279;DHT22;20538;51.528;9.942;2022-07-23T12:46:12;23.40;99.90
34279;DHT22;20538;51.528;9.942;2022-07-23T12:48:51;23.70;99.90
34279;DHT22;20538;51.528;9.942;2022-07-23T12:51:23;23.90;99.90
34279;DHT22;20538;51.528;9.942;2022-07-23T12:53:51;24.30;99.90
34279;DHT22;20538;51.528;9.942;2022-07-23T12:56:31;24.10;99.90
34279;DHT22;20538;51.528;9.942;2022-07-23T12:58:59;24.10;99.90
34279;DHT22;20538;51.528;9.942;2022-07-23T13:01:43;24.20;99.90
34279;DHT22;20538;51.528;9.942;2022-07-23T13:04:14;24.10;99.90
34279;DHT22;20538;51.528;9.942;2022-07-23T13:06:49;24.30;99.90
34279;DHT22;20538;51.528;9.942;2022-07-23T13:09:18;24.40;99.60
34279;DHT22;20538;51.528;9.942;2022-07-23T13:11:45;24.30;98.80
34279;DHT22;20538;51.528;9.942;2022-07-23T13:14:12;24.30;98.20
34279;DHT22;20538;51.528;9.942;2022-07-23T13:16:39;24.60;99.10
34279;DHT22;20538;51.528;9.942;2022-07-23T13:19:05;24.60;98.20
34279;DHT22;20538;51.528;9.942;2022-07-23T13:21:31;24.30;97.20
34279;DHT22;20538;51.528;9.942;2022-07-23T13:23:57;24.30;98.30
34279;DHT22;20538;51.528;9.942;2022-07-23T13:26:23;24.00;96.40
34279;DHT22;20538;51.528;9.942;2022-07-23T13:28:49;24.40;98.30
34279;DHT22;20538;51.528;9.942;2022-07-23T13:31:16;24.50;97.50
34279;DHT22;20538;51.528;9.942;2022-07-23T13:33:42;24.60;96.30
34279;DHT22;20538;51.528;9.942;2022-07-23T13:36:08;24.60;95.70
34279;DHT22;20538;51.528;9.942;2022-07-23T13:38:33;24.40;94.00
34279;DHT22;20538;51.528;9.942;2022-07-23T13:41:00;24.40;93.50
34279;DHT22;20538;51.528;9.942;2022-07-23T13:43:26;24.30;93.60
34279;DHT22;20538;51.528;9.942;2022-07-23T13:45:52;24.30;93.60
34279;DHT22;20538;51.528;9.942;2022-07-23T13:48:19;24.60;92.60
34279;DHT22;20538;51.528;9.942;2022-07-23T13:50:46;24.30;91.90
34279;DHT22;20538;51.528;9.942;2022-07-23T13:53:18;24.30;92.60
34279;DHT22;20538;51.528;9.942;2022-07-23T13:55:45;24.30;91.90
34279;DHT22;20538;51.528;9.942;2022-07-23T13:58:11;24.30;91.80
34279;DHT22;20538;51.528;9.942;2022-07-23T14:00:44;24.50;93.20
34279;DHT22;20538;51.528;9.942;2022-07-23T14:03:10;24.10;91.60
34279;DHT22;20538;51.528;9.942;2022-07-23T14:05:36;24.40;91.60
34279;DHT22;20538;51.528;9.942;2022-07-23T14:08:02;24.50;92.20
34279;DHT22;20538;51.528;9.942;2022-07-23T14:10:28;24.60;91.90
34279;DHT22;20538;51.528;9.942;2022-07-23T14:12:54;24.70;92.40
34279;DHT22;20538;51.528;9.942;2022-07-23T14:15:23;24.70;92.10
34279;DHT22;20538;51.528;9.942;2022-07-23T14:17:49;24.50;91.90
34279;DHT22;20538;51.528;9.942;2022-07-23T14:20:15;24.50;92.30
34279;DHT22;20538;51.528;9.942;2022-07-23T14:22:41;24.70;94.00
34279;DHT22;20538;51.528;9.942;2022-07-23T14:25:08;24.70;92.60
34279;DHT22;20538;51.528;9.942;2022-07-23T14:27:34;24.80;91.80
34279;DHT22;20538;51.528;9.942;2022-07-23T14:30:00;24.90;92.70
34279;DHT22;20538;51.528;9.942;2022-07-23T14:32:26;24.70;92.90
34279;DHT22;20538;51.528;9.942;2022-07-23T14:34:52;24.90;92.80
34279;DHT22;20538;51.528;9.942;2022-07-23T14:37:18;25.00;93.40
34279;DHT22;20538;51.528;9.942;2022-07-23T14:39:45;24.80;93.80
34279;DHT22;20538;51.528;9.942;2022-07-23T14:42:12;24.90;93.80
34279;DHT22;20538;51.528;9.942;2022-07-23T14:44:38;24.90;93.60
34279;DHT22;20538;51.528;9.942;2022-07-23T14:47:04;24.80;91.40
34279;DHT22;20538;51.528;9.942;2022-07-23T14:49:31;24.70;91.50
34279;DHT22;20538;51.528;9.942;2022-07-23T14:51:56;24.80;92.60
34279;DHT22;20538;51.528;9.942;2022-07-23T14:54:23;24.80;90.80
34279;DHT22;20538;51.528;9.942;2022-07-23T14:56:51;24.90;91.60
34279;DHT22;20538;51.528;9.942;2022-07-23T14:59:17;25.00;89.90
34279;DHT22;20538;51.528;9.942;2022-07-23T15:01:42;24.90;90.60
34279;DHT22;20538;51.528;9.942;2022-07-23T15:04:08;24.90;92.20
34279;DHT22;20538;51.528;9.942;2022-07-23T15:06:34;24.90;92.80
34279;DHT22;20538;51.528;9.942;2022-07-23T15:09:00;24.90;92.20
34279;DHT22;20538;51.528;9.942;2022-07-23T15:11:29;25.00;91.20
34279;DHT22;20538;51.528;9.942;2022-07-23T15:13:57;25.20;91.70
34279;DHT22;20538;51.528;9.942;2022-07-23T15:16:23;25.40;91.80
34279;DHT22;20538;51.528;9.942;2022-07-23T15:18:49;25.40;92.20
34279;DHT22;20538;51.528;9.942;2022-07-23T15:21:15;25.40;92.50
34279;DHT22;20538;51.528;9.942;2022-07-23T15:23:40;25.40;91.30
34279;DHT22;20538;51.528;9.942;2022-07-23T15:26:07;25.10;91.70
34279;DHT22;20538;51.528;9.942;2022-07-23T15:28:34;25.00;92.20
34279;DHT22;20538;51.528;9.942;2022-07-23T15:31:01;25.00;92.60
34279;DHT22;20538;51.528;9.942;2022-07-23T15:33:26;25.00;91.70
34279;DHT22;20538;51.528;9.942;2022-07-23T15:35:52;25.10;91.20
34279;DHT22;20538;51.528;9.942;2022-07-23T15:38:20;25.30;91.50
34279;DHT22;20538;51.528;9.942;2022-07-23T15:40:46;25.30;90.20
34279;DHT22;20538;51.528;9.942;2022-07-23T15:43:12;25.30;90.70
34279;DHT22;20538;51.528;9.942;2022-07-23T15:45:39;25.40;91.10
34279;DHT22;20538;51.528;9.942;2022-07-23T15:48:05;25.50;90.70
34279;DHT22;20538;51.528;9.942;2022-07-23T15:50:31;25.50;90.20
34279;DHT22;20538;51.528;9.942;2022-07-23T15:52:58;25.70;90.30
34279;DHT22;20538;51.528;9.942;2022-07-23T15:55:23;25.60;88.70
34279;DHT22;20538;51.528;9.942;2022-07-23T15:57:50;25.80;91.00
34279;DHT22;20538;51.528;9.942;2022-07-23T16:00:15;25.70;89.90
34279;DHT22;20538;51.528;9.942;2022-07-23T16:02:41;25.40;87.60